createdAt,value
2019-04-11T01:44:24.849Z,2.53
2019-04-11T01:46:56.329Z,2.50
2019-04-11T01:49:26.139Z,2.56
2019-04-11T01:51:56.679Z,2.45
2019-04-11T01:54:27.909Z,2.43
2019-04-11T01:56:58.969Z,2.45
2019-04-11T01:59:29.132Z,2.45
2019-04-11T02:02:17.841Z,2.45
2019-04-11T02:04:58.941Z,2.34
2019-04-11T02:07:28.911Z,2.18
2019-04-11T02:09:58.655Z,2.17
2019-04-11T02:12:29.096Z,2.15
2019-04-11T02:14:59.720Z,2.12
2019-04-11T02:17:30.638Z,2.17
2019-04-11T02:20:02.787Z,2.25
2019-04-11T02:22:40.498Z,2.25
2019-04-11T02:25:45.040Z,2.22
2019-04-11T02:28:16.916Z,2.22
2019-04-11T02:31:07.117Z,2.08
2019-04-11T02:33:38.790Z,2.12
2019-04-11T02:36:10.042Z,2.09
2019-04-11T02:38:41.464Z,2.09
2019-04-11T02:41:13.755Z,2.04
2019-04-11T02:43:44.460Z,2.04
2019-04-11T02:46:23.277Z,2.00
2019-04-11T02:48:46.481Z,2.00
2019-04-11T02:51:18.211Z,1.87
2019-04-11T02:53:49.537Z,1.96
2019-04-11T02:56:21.184Z,1.99
2019-04-11T02:58:52.288Z,2.05
2019-04-11T03:01:24.106Z,2.11
2019-04-11T03:03:54.207Z,2.11
2019-04-11T03:06:27.996Z,2.05
2019-04-11T03:08:59.325Z,1.97
2019-04-11T03:11:30.481Z,2.04
2019-04-11T03:14:03.278Z,1.97
2019-04-11T03:16:42.692Z,1.97
2019-04-11T03:19:18.251Z,1.92
2019-04-11T03:21:39.884Z,1.92
2019-04-11T03:24:10.913Z,1.98
2019-04-11T03:26:41.809Z,1.78
2019-04-11T03:29:13.306Z,1.99
2019-04-11T03:32:20.371Z,1.99
2019-04-11T03:39:41.317Z,1.93
2019-04-11T03:42:04.117Z,1.93
2019-04-11T03:44:30.461Z,1.98
2019-04-11T03:47:12.936Z,1.85
2019-04-11T03:49:36.663Z,1.85
2019-04-11T03:51:57.164Z,1.87
2019-04-11T03:54:27.134Z,1.87
2019-04-11T03:56:59.144Z,1.89
2019-04-11T03:59:31.264Z,1.89
2019-04-11T04:02:00.973Z,1.91
2019-04-11T04:04:30.894Z,1.83
2019-04-11T04:07:02.614Z,1.87
2019-04-11T04:09:34.912Z,1.87
2019-04-11T04:12:05.076Z,1.80
2019-04-11T04:15:01.458Z,1.68
2019-04-11T04:17:55.186Z,1.76
2019-04-11T04:20:46.071Z,1.57
2019-04-11T04:23:20.840Z,1.61
2019-04-11T04:25:51.678Z,1.44
2019-04-11T04:28:23.698Z,1.45
2019-04-11T04:30:54.530Z,1.51
2019-04-11T04:33:26.334Z,1.55
2019-04-11T04:35:57.892Z,1.45
2019-04-11T04:38:29.545Z,1.45
2019-04-11T04:41:16.354Z,1.45
2019-04-11T04:43:34.049Z,1.60
2019-04-11T04:46:23.825Z,1.59
2019-04-11T04:48:38.012Z,1.61
2019-04-11T04:51:11.158Z,1.70
2019-04-11T04:53:41.048Z,1.70
2019-04-11T04:56:11.221Z,1.60
2019-04-11T04:58:44.424Z,1.66
2019-04-11T05:01:19.100Z,1.69
2019-04-11T05:03:50.938Z,1.72
2019-04-11T05:06:20.914Z,1.66
2019-04-11T05:08:51.397Z,1.71
2019-04-11T05:11:23.133Z,1.70
2019-04-11T05:13:54.510Z,1.70
2019-04-11T05:16:24.477Z,1.71
2019-04-11T05:18:55.061Z,1.74
2019-04-11T05:21:25.455Z,1.76
2019-04-11T05:23:56.588Z,1.71
2019-04-11T05:26:27.865Z,1.76
2019-04-11T05:28:58.686Z,1.78
2019-04-11T05:31:30.483Z,1.78
2019-04-11T05:34:01.529Z,1.84
2019-04-11T05:36:34.088Z,1.84
2019-04-11T05:39:06.543Z,1.97
2019-04-11T05:41:37.577Z,1.90
2019-04-11T05:44:10.440Z,1.96
2019-04-11T05:46:49.290Z,2.09
2019-04-11T05:49:29.050Z,2.09
2019-04-11T05:52:02.115Z,2.15
2019-04-11T05:54:41.202Z,2.15
2019-04-11T05:57:11.277Z,2.19
2019-04-11T05:59:45.929Z,2.43
2019-04-11T06:02:24.952Z,2.44
2019-04-11T06:05:02.719Z,2.57
2019-04-11T06:07:43.581Z,2.51
2019-04-11T06:10:17.822Z,2.84
2019-04-11T06:13:22.572Z,2.84
2019-04-11T06:15:56.671Z,2.86
2019-04-11T06:18:41.820Z,2.98
2019-04-11T06:21:24.330Z,3.12
2019-04-11T06:24:14.276Z,3.29
2019-04-11T06:26:54.773Z,3.34
2019-04-11T06:29:34.886Z,3.41
2019-04-11T06:32:28.248Z,3.41
2019-04-11T06:35:13.589Z,3.56
2019-04-11T06:38:13.008Z,3.71
2019-04-11T06:40:51.001Z,3.70
2019-04-11T06:43:32.616Z,3.84
2019-04-11T06:46:27.294Z,3.86
2019-04-11T06:49:26.580Z,3.98
2019-04-11T06:52:00.235Z,4.21
2019-04-11T06:54:52.546Z,4.19
2019-04-11T06:57:24.068Z,4.19
2019-04-11T06:59:53.898Z,4.41
2019-04-11T07:02:25.121Z,4.54
2019-04-11T07:05:04.640Z,4.64
2019-04-11T07:07:36.205Z,4.79
2019-04-11T07:10:07.787Z,4.96
2019-04-11T07:13:07.758Z,4.96
2019-04-11T07:15:41.986Z,5.16
2019-04-11T07:18:29.436Z,5.16
2019-04-11T07:21:02.941Z,5.29
2019-04-11T07:23:51.199Z,5.30
2019-04-11T07:26:35.043Z,5.54
2019-04-11T07:29:24.066Z,5.65
2019-04-11T07:32:11.698Z,5.72
2019-04-11T07:35:04.681Z,5.68
2019-04-11T07:37:38.878Z,5.91
2019-04-11T07:40:29.468Z,5.91
2019-04-11T07:43:13.434Z,6.07
2019-04-11T07:46:08.962Z,6.23
2019-04-11T07:48:40.767Z,6.23
2019-04-11T07:51:36.447Z,6.29
2019-04-11T07:54:13.632Z,6.33
2019-04-11T07:57:05.100Z,6.41
2019-04-11T07:59:57.747Z,6.50
2019-04-11T08:02:45.702Z,6.54
2019-04-11T08:05:44.613Z,6.75
2019-04-11T08:08:37.354Z,6.61
2019-04-11T08:11:42.199Z,6.61
2019-04-11T08:14:26.529Z,6.84
2019-04-11T08:17:37.043Z,6.85
2019-04-11T08:20:17.338Z,6.85
2019-04-11T08:23:00.350Z,6.95
2019-04-11T08:25:49.485Z,7.00
2019-04-11T08:28:20.546Z,7.00
2019-04-11T08:31:13.274Z,7.37
2019-04-11T08:33:45.325Z,7.37
2019-04-11T08:36:38.162Z,7.54
2019-04-11T08:39:19.296Z,7.51
2019-04-11T08:42:07.466Z,7.48
2019-04-11T08:44:41.736Z,7.49
2019-04-11T08:47:20.323Z,7.29
2019-04-11T08:49:52.880Z,7.37
2019-04-11T08:52:46.518Z,7.45
2019-04-11T08:55:48.820Z,7.36
2019-04-11T08:58:33.107Z,7.32
2019-04-11T09:01:03.674Z,7.32
2019-04-11T09:03:59.826Z,7.32
2019-04-11T09:06:22.933Z,7.64
2019-04-11T09:09:11.585Z,7.74
2019-04-11T09:11:49.875Z,7.74
2019-04-11T09:14:38.068Z,7.68
2019-04-11T09:17:21.031Z,7.68
2019-04-11T09:20:09.475Z,7.92
2019-04-11T09:22:57.489Z,8.20
2019-04-11T09:25:45.497Z,8.13
2019-04-11T09:28:36.008Z,8.13
2019-04-11T09:31:43.931Z,7.80
2019-04-11T09:34:46.055Z,8.10
2019-04-11T09:37:36.015Z,8.12
2019-04-11T09:40:26.317Z,8.12
2019-04-11T09:43:13.779Z,8.47
2019-04-11T09:46:01.827Z,8.19
2019-04-11T09:48:50.393Z,8.32
2019-04-11T09:51:40.365Z,8.58
2019-04-11T09:54:28.306Z,8.62
2019-04-11T09:57:20.625Z,8.50
2019-04-11T10:00:24.679Z,8.50
2019-04-11T10:03:05.089Z,8.32
2019-04-11T10:05:46.728Z,8.54
2019-04-11T10:08:28.260Z,8.54
2019-04-11T10:11:21.916Z,8.74
2019-04-11T10:14:05.177Z,8.81
2019-04-11T10:16:52.653Z,8.80
2019-04-11T10:19:40.311Z,9.10
2019-04-11T10:22:22.719Z,9.18
2019-04-11T10:25:10.698Z,9.35
2019-04-11T10:28:01.146Z,9.55
2019-04-11T10:30:48.843Z,9.26
2019-04-11T10:33:29.242Z,9.26
2019-04-11T10:36:25.213Z,9.28
2019-04-11T10:39:18.191Z,9.28
2019-04-11T10:41:50.891Z,9.46
2019-04-11T10:44:32.324Z,9.46
2019-04-11T10:47:09.619Z,9.83
2019-04-11T10:49:58.800Z,9.83
2019-04-11T10:52:38.409Z,9.44
2019-04-11T10:55:15.608Z,9.44
2019-04-11T10:58:06.748Z,9.68
2019-04-11T11:00:53.650Z,9.21
2019-04-11T11:03:30.672Z,9.23
2019-04-11T11:06:01.505Z,9.28
2019-04-11T11:08:41.715Z,9.28
2019-04-11T11:11:22.649Z,9.08
2019-04-11T11:14:14.929Z,9.64
2019-04-11T11:17:06.623Z,9.63
2019-04-11T11:20:08.891Z,9.42
2019-04-11T11:22:53.968Z,9.42
2019-04-11T11:25:35.260Z,9.28
2019-04-11T11:28:05.422Z,9.26
2019-04-11T11:30:54.161Z,9.37
2019-04-11T11:33:27.094Z,9.51
2019-04-11T11:36:37.494Z,9.50
2019-04-11T11:39:22.695Z,9.73
2019-04-11T11:42:10.342Z,9.95
2019-04-11T11:44:53.126Z,10.12
2019-04-11T11:47:41.644Z,10.12
2019-04-11T11:50:18.330Z,10.12
2019-04-11T11:53:09.414Z,9.92
2019-04-11T11:55:38.938Z,9.32
2019-04-11T11:58:42.259Z,9.54
2019-04-11T12:01:13.551Z,9.32
2019-04-11T12:04:03.052Z,9.32
2019-04-11T12:06:33.568Z,9.49
2019-04-11T12:09:28.758Z,9.79
2019-04-11T12:12:04.353Z,10.06
2019-04-11T12:14:53.855Z,10.06
2019-04-11T12:17:52.235Z,10.17
2019-04-11T12:20:29.196Z,10.17
2019-04-11T12:23:01.195Z,10.01
2019-04-11T12:25:37.161Z,9.98
2019-04-11T12:28:37.218Z,9.98
2019-04-11T12:31:14.098Z,10.24
2019-04-11T12:34:02.114Z,10.24
2019-04-11T12:36:36.923Z,10.35
2019-04-11T12:39:34.857Z,10.12
2019-04-11T12:42:17.391Z,10.16
2019-04-11T12:45:06.504Z,10.16
2019-04-11T12:47:50.101Z,9.92
2019-04-11T12:50:37.312Z,10.09
2019-04-11T12:53:09.738Z,10.09
2019-04-11T12:56:07.265Z,10.08
2019-04-11T12:58:41.648Z,9.96
2019-04-11T13:01:35.721Z,10.09
2019-04-11T13:04:28.337Z,9.83
2019-04-11T13:07:36.136Z,9.98
2019-04-11T13:10:32.737Z,9.98
2019-04-11T13:13:25.791Z,9.99
2019-04-11T13:16:11.838Z,10.07
2019-04-11T13:18:55.964Z,10.19
2019-04-11T13:21:34.797Z,10.12
2019-04-11T13:24:23.977Z,10.12
2019-04-11T13:27:14.189Z,9.81
2019-04-11T13:30:03.339Z,9.89
2019-04-11T13:32:44.530Z,9.66
2019-04-11T13:35:33.359Z,10.09
2019-04-11T13:38:10.245Z,10.40
2019-04-11T13:41:04.858Z,9.81
2019-04-11T13:43:39.053Z,9.70
2019-04-11T13:46:34.191Z,10.29
2019-04-11T13:49:17.176Z,10.29
2019-04-11T13:52:04.607Z,9.77
2019-04-11T13:54:57.205Z,9.77
2019-04-11T13:57:58.223Z,10.10
2019-04-11T14:00:50.641Z,9.61
2019-04-11T14:03:45.330Z,10.10
2019-04-11T14:06:23.048Z,9.65
2019-04-11T14:09:14.794Z,9.65
2019-04-11T14:11:47.592Z,10.19
2019-04-11T14:14:54.672Z,10.21
2019-04-11T14:17:41.549Z,10.21
2019-04-11T14:20:47.698Z,10.08
2019-04-11T14:23:41.892Z,10.08
2019-04-11T14:26:23.748Z,10.08
2019-04-11T14:29:11.092Z,10.24
2019-04-11T14:31:50.908Z,10.39
2019-04-11T14:34:38.380Z,10.39
2019-04-11T14:37:25.718Z,10.09
2019-04-11T14:40:03.742Z,10.12
2019-04-11T14:42:47.189Z,10.12
2019-04-11T14:45:46.917Z,10.12
2019-04-11T14:48:20.559Z,9.76
2019-04-11T14:51:07.547Z,9.76
2019-04-11T14:53:56.618Z,9.52
2019-04-11T14:56:27.257Z,9.44
2019-04-11T14:59:24.728Z,9.57
2019-04-11T15:01:56.461Z,9.57
2019-04-11T15:05:06.294Z,9.63
2019-04-11T15:07:37.349Z,9.38
2019-04-11T15:10:21.653Z,9.66
2019-04-11T15:12:51.757Z,9.66
2019-04-11T15:15:52.456Z,9.97
2019-04-11T15:18:26.774Z,9.97
2019-04-11T15:21:12.360Z,10.21
2019-04-11T15:23:44.903Z,10.21
2019-04-11T15:26:36.605Z,10.12
2019-04-11T15:29:20.830Z,10.17
2019-04-11T15:32:08.180Z,10.17
2019-04-11T15:34:43.174Z,10.17
2019-04-11T15:37:47.610Z,9.99
2019-04-11T15:40:39.188Z,9.99
2019-04-11T15:43:43.373Z,10.47
2019-04-11T15:46:24.364Z,10.66
2019-04-11T15:49:19.948Z,10.22
2019-04-11T15:52:00.225Z,10.46
2019-04-11T15:54:49.514Z,10.12
2019-04-11T15:57:47.493Z,10.86
2019-04-11T16:00:35.784Z,10.81
2019-04-11T16:03:24.829Z,11.00
2019-04-11T16:06:22.050Z,10.93
2019-04-11T16:08:54.805Z,10.93
2019-04-11T16:11:52.869Z,10.40
2019-04-11T16:14:36.337Z,10.57
2019-04-11T16:17:36.720Z,10.57
2019-04-11T16:20:19.602Z,10.75
2019-04-11T16:23:16.615Z,10.75
2019-04-11T16:25:51.856Z,10.75
2019-04-11T16:28:39.788Z,10.02
2019-04-11T16:31:15.044Z,10.48
2019-04-11T16:34:03.177Z,10.52
2019-04-11T16:36:46.398Z,10.20
2019-04-11T16:39:55.175Z,10.52
2019-04-11T16:42:39.262Z,10.52
2019-04-11T16:45:30.508Z,10.23
2019-04-11T16:48:02.305Z,10.23
2019-04-11T16:50:33.790Z,9.84
2019-04-11T16:53:03.727Z,9.54
2019-04-11T16:55:33.686Z,9.54
2019-04-11T16:58:03.425Z,9.27
2019-04-11T17:00:34.024Z,8.48
2019-04-11T17:03:03.969Z,8.59
2019-04-11T17:08:30.752Z,8.50
2019-04-11T17:11:10.649Z,8.10
2019-04-11T17:13:43.170Z,8.00
2019-04-11T17:16:14.713Z,8.00
2019-04-11T17:18:44.675Z,7.83
2019-04-11T17:21:15.343Z,7.66
2019-04-11T17:23:47.120Z,7.57
2019-04-11T17:26:16.742Z,7.33
2019-04-11T17:28:47.057Z,7.33
2019-04-11T17:31:17.098Z,7.31
2019-04-11T17:33:47.106Z,7.16
2019-04-11T17:36:17.018Z,7.10
2019-04-11T17:38:47.192Z,7.09
2019-04-11T17:41:19.421Z,7.10
2019-04-11T17:43:51.617Z,7.10
2019-04-11T17:46:21.111Z,6.84
2019-04-11T17:48:51.987Z,6.81
2019-04-11T17:51:25.416Z,6.81
2019-04-11T17:53:56.899Z,6.63
2019-04-11T17:56:28.153Z,6.43
2019-04-11T17:59:00.772Z,6.43
2019-04-11T18:01:33.527Z,6.56
2019-04-11T18:04:05.723Z,6.49
2019-04-11T18:06:39.734Z,6.37
2019-04-11T18:09:13.767Z,6.20
2019-04-11T18:11:43.911Z,6.20
2019-04-11T18:14:13.978Z,6.11
2019-04-11T18:16:44.063Z,6.11
2019-04-11T18:19:14.793Z,5.96
2019-04-11T18:21:44.829Z,5.95
2019-04-11T18:24:15.027Z,5.73
2019-04-11T18:26:45.078Z,5.73
2019-04-11T18:29:15.709Z,5.74
2019-04-11T18:31:46.304Z,5.62
2019-04-11T18:34:16.453Z,5.50
2019-04-11T18:36:46.499Z,5.50
2019-04-11T18:39:16.459Z,5.37
2019-04-11T18:41:46.797Z,5.32
2019-04-11T18:44:18.188Z,5.32
2019-04-11T18:46:48.451Z,5.32
2019-04-11T18:49:19.434Z,5.33
2019-04-11T18:51:50.853Z,5.33
2019-04-11T18:54:21.624Z,5.20
2019-04-11T18:56:51.771Z,5.15
2019-04-11T18:59:21.567Z,5.13
2019-04-11T19:01:52.342Z,5.13
2019-04-11T19:04:31.764Z,5.02
2019-04-11T19:06:56.181Z,4.99
2019-04-11T19:09:26.450Z,4.99
2019-04-11T19:11:56.312Z,4.91
2019-04-11T19:14:26.813Z,4.91
2019-04-11T19:16:56.997Z,4.94
2019-04-11T19:19:27.582Z,4.94
2019-04-11T19:21:57.611Z,4.67
2019-04-11T19:24:35.641Z,4.76
2019-04-11T19:27:02.516Z,4.66
2019-04-11T19:29:32.619Z,4.58
2019-04-11T19:32:02.669Z,4.58
2019-04-11T19:34:32.696Z,4.60
2019-04-11T19:37:03.723Z,4.54
2019-04-11T19:39:33.973Z,4.47
2019-04-11T19:42:08.769Z,4.38
2019-04-11T19:44:36.067Z,4.36
2019-04-11T19:47:06.155Z,4.36
2019-04-11T19:49:36.039Z,4.34
2019-04-11T19:52:05.806Z,4.29
2019-04-11T19:54:36.587Z,4.20
2019-04-11T19:57:07.440Z,4.17
2019-04-11T19:59:40.611Z,4.24
2019-04-11T20:02:10.576Z,4.03
2019-04-11T20:04:40.404Z,4.01
2019-04-11T20:07:10.718Z,4.05
2019-04-11T20:09:41.108Z,3.97
2019-04-11T20:12:11.589Z,3.97
2019-04-11T20:14:41.479Z,4.01
2019-04-11T20:17:11.167Z,4.00
2019-04-11T20:19:40.991Z,4.05
2019-04-11T20:22:11.440Z,4.05
2019-04-11T20:24:45.950Z,3.90
2019-04-11T20:27:20.036Z,3.84
2019-04-11T20:29:51.022Z,3.90
2019-04-11T20:32:19.881Z,3.79
2019-04-11T20:34:50.251Z,3.81
2019-04-11T20:37:20.161Z,3.81
2019-04-11T20:39:50.114Z,3.86
2019-04-11T20:42:23.777Z,3.72
2019-04-11T20:44:51.840Z,3.67
2019-04-11T20:47:21.803Z,3.70
2019-04-11T20:49:51.749Z,3.80
2019-04-11T20:52:21.933Z,3.80
2019-04-11T20:54:52.314Z,3.64
2019-04-11T20:57:25.809Z,3.65
2019-04-11T20:59:54.490Z,3.67
2019-04-11T21:02:28.267Z,3.64
2019-04-11T21:04:58.843Z,3.61
2019-04-11T21:07:31.600Z,3.61
2019-04-11T21:10:03.756Z,3.54
2019-04-11T21:12:32.517Z,3.44
2019-04-11T21:15:03.110Z,3.51
2019-04-11T21:17:35.335Z,3.51
2019-04-11T21:20:05.628Z,3.45
2019-04-11T21:22:36.100Z,3.48
2019-04-11T21:25:06.278Z,3.48
2019-04-11T21:27:37.733Z,3.48
2019-04-11T21:30:07.886Z,3.48
2019-04-11T21:32:37.724Z,3.42
2019-04-11T21:35:09.164Z,3.49
2019-04-11T21:37:39.148Z,3.40
2019-04-11T21:40:09.405Z,3.40
2019-04-11T21:42:39.440Z,3.43
2019-04-11T21:45:09.398Z,3.43
2019-04-11T21:47:39.468Z,3.38
2019-04-11T21:50:10.401Z,3.40
2019-04-11T21:52:43.445Z,3.37
2019-04-11T21:55:15.157Z,3.37
2019-04-11T21:57:48.417Z,3.33
2019-04-11T22:00:25.215Z,3.33
2019-04-11T22:02:55.106Z,3.16
2019-04-11T22:05:28.931Z,3.09
2019-04-11T22:07:56.935Z,3.16
2019-04-11T22:10:26.880Z,3.10
2019-04-11T22:12:56.818Z,3.10
2019-04-11T22:15:27.033Z,3.29
2019-04-11T22:17:57.315Z,3.24
2019-04-11T22:20:27.721Z,3.25
2019-04-11T22:22:57.930Z,3.28
2019-04-11T22:25:27.970Z,3.22
2019-04-11T22:27:57.871Z,3.22
2019-04-11T22:30:28.096Z,3.24
2019-04-11T22:33:35.736Z,3.24
2019-04-11T22:36:05.722Z,3.14
2019-04-11T22:38:35.550Z,3.37
2019-04-11T22:41:05.457Z,3.21
2019-04-11T22:43:38.106Z,3.28
2019-04-11T22:46:12.017Z,3.28
2019-04-11T22:48:39.882Z,3.33
2019-04-11T22:51:11.269Z,3.48
2019-04-11T22:53:43.213Z,3.27
2019-04-11T22:56:14.788Z,3.29
2019-04-11T22:58:44.749Z,3.29
2019-04-11T23:01:16.604Z,3.44
2019-04-11T23:03:50.188Z,3.44
2019-04-11T23:06:20.175Z,3.54
2019-04-11T23:08:50.576Z,3.54
2019-04-11T23:11:20.577Z,3.69
2019-04-11T23:13:50.410Z,3.69
2019-04-11T23:16:20.745Z,3.65
2019-04-11T23:18:50.617Z,3.65
2019-04-11T23:21:20.693Z,3.49
2019-04-11T23:23:50.716Z,3.72
2019-04-11T23:26:20.597Z,3.72
2019-04-11T23:28:50.697Z,3.83
2019-04-11T23:31:21.144Z,3.83
2019-04-11T23:33:51.967Z,3.82
2019-04-11T23:36:22.873Z,3.81
2019-04-11T23:38:54.266Z,3.99
2019-04-11T23:41:24.290Z,3.99
2019-04-11T23:43:54.161Z,3.86
2019-04-11T23:46:24.244Z,3.92
2019-04-11T23:48:55.558Z,3.92
2019-04-11T23:51:26.482Z,3.94
2019-04-11T23:53:59.009Z,4.02
2019-04-11T23:56:30.598Z,4.02
2019-04-11T23:59:02.165Z,4.03
